Time;durP1;ratioP1;P1;durP2;ratioP2;P2;SDS_P1;SDS_P2;PMS_P1;PMS_P2;Temp;Humidity;BMP_temperature;BMP_pressure;BME280_temperature;BME280_humidity;BME280_pressure;Samples;Min_cycle;Max_cycle;Signal;HPM_P1;HPM_P2
2023/03/18 00:00:45;;;;;;;9.70;5.70;;;13.00;99.90;;;13.27;nan;100163.94;4951050;28;20682;-66
2023/03/18 00:03:12;;;;;;;7.33;4.60;;;13.10;99.90;;;13.28;nan;100159.53;4952066;28;21232;-65
2023/03/18 00:05:40;;;;;;;8.03;6.13;;;13.10;99.90;;;13.26;nan;100154.44;4950854;28;20693;-65
2023/03/18 00:08:08;;;;;;;17.20;6.70;;;13.10;99.90;;;13.24;nan;100151.13;4952237;28;20679;-65
2023/03/18 00:10:35;;;;;;;7.00;5.80;;;13.00;99.90;;;13.19;nan;100158.56;4953187;29;20628;-63
2023/03/18 00:13:03;;;;;;;7.67;5.30;;;13.00;99.90;;;13.18;nan;100159.56;4952426;28;20694;-65
2023/03/18 00:15:30;;;;;;;6.40;5.20;;;13.00;99.90;;;13.19;nan;100155.94;4951638;28;20899;-66
2023/03/18 00:18:00;;;;;;;6.60;5.30;;;13.00;99.90;;;13.19;nan;100164.66;4952037;29;20628;-65
2023/03/18 00:20:45;;;;;;;7.13;5.40;;;13.00;99.90;;;13.20;nan;100170.72;4951868;28;20651;-66
2023/03/18 00:23:12;;;;;;;6.77;5.40;;;13.00;99.90;;;13.20;nan;100162.84;4953313;29;20615;-65
2023/03/18 00:25:39;;;;;;;7.00;5.53;;;13.00;99.90;;;13.20;nan;100168.09;4951679;28;20656;-66
2023/03/18 00:28:07;;;;;;;10.87;4.27;;;13.00;99.90;;;13.19;nan;100163.81;4952252;29;21186;-65
2023/03/18 00:30:38;;;;;;;8.13;5.37;;;13.00;99.90;;;13.19;nan;100169.06;4946493;28;20718;-65
2023/03/18 00:33:05;;;;;;;7.37;5.27;;;13.00;99.90;;;13.15;nan;100162.44;4937154;28;20649;-66
2023/03/18 00:35:35;;;;;;;6.73;5.17;;;13.00;99.90;;;13.13;nan;100165.19;4943715;28;20725;-66
2023/03/18 00:38:06;;;;;;;8.33;5.10;;;12.90;99.90;;;13.11;nan;100175.00;4951183;28;20632;-65
2023/03/18 00:40:52;;;;;;;9.13;5.70;;;13.00;99.90;;;13.11;nan;100184.63;4955093;29;20630;-66
2023/03/18 00:43:28;;;;;;;7.30;4.77;;;12.90;99.90;;;13.12;nan;100184.50;4954976;28;20640;-67
2023/03/18 00:45:57;;;;;;;6.10;5.03;;;12.90;99.90;;;13.11;nan;100182.84;4955666;28;20651;-65
2023/03/18 00:48:24;;;;;;;8.73;4.70;;;12.90;99.90;;;13.11;nan;100174.16;4954723;28;20644;-66
2023/03/18 00:50:51;;;;;;;7.37;4.63;;;12.90;99.90;;;13.11;nan;100179.41;4953433;28;20640;-65
2023/03/18 00:53:18;;;;;;;4.83;4.40;;;12.90;99.90;;;13.07;nan;100178.03;4950616;28;20671;-65
2023/03/18 00:55:45;;;;;;;7.40;5.03;;;12.90;99.90;;;13.04;nan;100181.72;4953486;28;20664;-66
2023/03/18 00:58:13;;;;;;;4.97;4.47;;;12.90;99.90;;;13.02;nan;100178.41;4954135;28;20636;-65
2023/03/18 01:00:40;;;;;;;6.73;4.60;;;12.90;99.90;;;12.98;nan;100182.25;4954029;28;20651;-66
2023/03/18 01:03:07;;;;;;;7.20;5.20;;;12.80;99.90;;;12.95;nan;100181.69;4954170;28;20644;-65
2023/03/18 01:05:35;;;;;;;6.70;5.10;;;12.80;99.90;;;12.93;nan;100179.19;4994136;23;20694;-63
2023/03/18 01:08:02;;;;;;;7.03;5.37;;;12.80;99.90;;;12.92;nan;100176.72;4958990;28;20993;-63
2023/03/18 01:10:29;;;;;;;4.23;3.73;;;12.80;99.90;;;12.92;nan;100180.19;4955097;28;20628;-63
2023/03/18 01:12:57;;;;;;;4.30;3.63;;;12.80;99.90;;;12.88;nan;100186.66;4955463;28;20870;-63
2023/03/18 01:15:24;;;;;;;6.43;5.20;;;12.70;99.90;;;12.87;nan;100189.38;4968309;28;20651;-63
2023/03/18 01:17:55;;;;;;;6.07;4.80;;;12.70;99.90;;;12.90;nan;100189.13;4953909;28;20644;-63
2023/03/18 01:20:23;;;;;;;6.00;4.23;;;12.70;99.90;;;12.90;nan;100189.13;4954605;28;20612;-63
2023/03/18 01:22:50;;;;;;;4.43;4.00;;;12.80;99.90;;;12.90;nan;100189.97;4951669;28;20648;-63
2023/03/18 01:25:17;;;;;;;4.77;3.83;;;12.80;99.90;;;12.94;nan;100185.28;4952907;28;20680;-64
2023/03/18 01:27:44;;;;;;;6.23;4.07;;;12.80;99.90;;;12.91;nan;100170.66;4954281;28;21020;-64
2023/03/18 01:30:12;;;;;;;5.37;4.60;;;12.80;99.90;;;12.88;nan;100176.19;4955401;28;20639;-64
2023/03/18 01:32:40;;;;;;;7.23;5.07;;;12.70;99.90;;;12.85;nan;100173.81;4954268;28;21051;-62
2023/03/18 01:35:07;;;;;;;4.60;3.33;;;12.70;99.90;;;12.88;nan;100173.56;4952511;28;21252;-65
2023/03/18 01:37:35;;;;;;;5.93;3.67;;;12.70;99.90;;;12.87;nan;100173.69;4953209;28;20647;-63
2023/03/18 01:40:03;;;;;;;6.97;5.10;;;12.70;99.90;;;12.88;nan;100180.59;4953792;28;20636;-63
2023/03/18 01:42:30;;;;;;;6.67;4.70;;;12.70;99.90;;;12.89;nan;100182.22;4953729;28;20636;-63
2023/03/18 01:45:20;;;;;;;5.67;4.47;;;12.70;99.90;;;12.92;nan;100181.97;4953080;28;20750;-63
2023/03/18 01:47:48;;;;;;;5.30;4.23;;;12.70;99.90;;;12.92;nan;100179.34;4952855;28;20640;-63
2023/03/18 01:50:21;;;;;;;4.47;4.07;;;12.80;99.90;;;12.94;nan;100190.50;4952066;28;20719;-64
2023/03/18 01:52:55;;;;;;;6.70;3.93;;;12.80;99.90;;;12.91;nan;100186.38;4952987;28;20632;-63
2023/03/18 01:55:26;;;;;;;4.40;4.00;;;12.80;99.90;;;12.95;nan;100179.06;4954345;28;20674;-64
2023/03/18 01:57:54;;;;;;;5.47;3.77;;;12.80;99.90;;;13.00;nan;100169.00;4951467;28;20706;-64
2023/03/18 02:00:22;;;;;;;6.10;4.30;;;12.80;99.90;;;13.08;nan;100166.56;4951583;28;20632;-63
2023/03/18 02:02:52;;;;;;;5.67;4.70;;;12.90;99.90;;;13.11;nan;100153.19;4951475;28;21260;-63
2023/03/18 02:05:23;;;;;;;7.63;3.87;;;12.90;99.90;;;13.09;nan;100163.81;4935786;29;20734;-63
2023/03/18 02:07:51;;;;;;;6.23;5.00;;;12.90;99.90;;;13.09;nan;100165.59;4952731;28;20655;-63
2023/03/18 02:10:25;;;;;;;5.57;4.73;;;12.90;99.90;;;13.07;nan;100170.16;4953193;28;21182;-63
2023/03/18 02:13:03;;;;;;;5.90;4.97;;;12.90;99.90;;;13.08;nan;100169.19;4953804;28;21073;-64
2023/03/18 02:15:32;;;;;;;7.63;5.70;;;12.90;99.90;;;13.05;nan;100157.19;4952364;28;20706;-64
2023/03/18 02:18:09;;;;;;;10.00;5.80;;;12.90;99.90;;;13.04;nan;100163.41;4953544;29;21299;-64
2023/03/18 02:21:06;;;;;;;8.30;5.07;;;12.90;99.90;;;13.04;nan;100168.63;4952569;28;20626;-63
2023/03/18 02:24:01;;;;;;;8.13;4.77;;;12.90;99.90;;;13.03;nan;100174.78;4959566;28;20627;-64
2023/03/18 02:26:53;;;;;;;6.00;4.37;;;12.90;99.90;;;13.05;nan;100177.31;4970427;28;21008;-63
2023/03/18 02:29:21;;;;;;;6.07;4.80;;;12.90;99.90;;;13.02;nan;100177.56;4953331;28;21201;-64
2023/03/18 02:31:49;;;;;;;5.87;4.30;;;12.90;99.90;;;13.01;nan;100181.16;4952124;28;20631;-64
2023/03/18 02:34:17;;;;;;;8.03;3.97;;;12.80;99.90;;;13.02;nan;100172.31;4934928;29;20651;-64
2023/03/18 02:36:46;;;;;;;5.80;4.67;;;12.90;99.90;;;13.05;nan;100177.31;4967603;28;20675;-64
2023/03/18 02:39:15;;;;;;;3.83;3.50;;;12.90;99.90;;;13.04;nan;100168.63;4944383;28;20677;-62
2023/03/18 02:41:43;;;;;;;4.20;3.77;;;12.90;99.90;;;13.03;nan;100166.13;4953086;28;20686;-64
2023/03/18 02:44:11;;;;;;;5.50;5.00;;;12.90;99.90;;;13.01;nan;100166.25;4952457;28;20750;-64
2023/03/18 02:47:00;;;;;;;5.43;4.00;;;12.80;99.90;;;13.02;nan;100167.09;4951833;28;20639;-63
2023/03/18 02:49:27;;;;;;;7.57;4.70;;;12.90;99.90;;;13.00;nan;100175.09;4952745;28;20638;-64
2023/03/18 02:51:55;;;;;;;6.40;5.00;;;12.80;99.90;;;13.00;nan;100182.09;4951505;28;20644;-64
2023/03/18 02:54:28;;;;;;;5.90;4.40;;;12.80;99.90;;;12.99;nan;100180.47;4952066;28;20706;-64
2023/03/18 02:56:56;;;;;;;6.77;5.70;;;12.80;99.90;;;12.97;nan;100180.59;4966153;28;20664;-64
2023/03/18 02:59:24;;;;;;;5.80;5.00;;;12.80;99.90;;;12.98;nan;100189.28;4967011;28;20644;-64
2023/03/18 03:01:53;;;;;;;5.70;4.70;;;12.80;99.90;;;12.95;nan;100189.53;4947485;28;20651;-64
2023/03/18 03:04:22;;;;;;;7.20;5.30;;;12.80;99.90;;;12.92;nan;100188.03;4943935;29;20668;-64
2023/03/18 03:06:51;;;;;;;5.90;4.90;;;12.80;99.90;;;12.91;nan;100188.97;4951717;28;20888;-62
2023/03/18 03:09:18;;;;;;;5.97;5.17;;;12.80;99.90;;;12.92;nan;100192.44;4965936;28;20635;-64
2023/03/18 03:11:46;;;;;;;4.80;4.00;;;12.80;99.90;;;12.89;nan;100192.69;4953125;28;20620;-64
2023/03/18 03:14:15;;;;;;;6.07;4.30;;;12.80;99.90;;;12.88;nan;100189.28;4950447;29;20640;-64
2023/03/18 03:16:42;;;;;;;5.20;4.70;;;12.70;99.90;;;12.90;nan;100194.38;4952091;28;20667;-64
2023/03/18 03:19:09;;;;;;;3.20;2.90;;;12.70;99.90;;;12.87;nan;100192.00;4952491;28;21196;-63
2023/03/18 03:21:36;;;;;;;4.17;2.97;;;12.70;99.90;;;12.79;nan;100197.09;4949160;28;21186;-64
2023/03/18 03:24:05;;;;;;;3.03;2.83;;;12.70;99.90;;;12.76;nan;100192.94;4953678;28;20638;-64
2023/03/18 03:26:33;;;;;;;3.63;3.30;;;12.60;99.90;;;12.74;nan;100194.03;4952440;28;20667;-64
2023/03/18 03:29:00;;;;;;;4.77;2.77;;;12.60;99.90;;;12.72;nan;100201.19;4952638;28;20632;-64
2023/03/18 03:31:27;;;;;;;3.83;3.50;;;12.60;99.90;;;12.72;nan;100195.97;4952334;28;20616;-64
2023/03/18 03:33:54;;;;;;;8.80;3.20;;;12.60;99.90;;;12.71;nan;100189.94;4946032;28;20644;-64
2023/03/18 03:36:21;;;;;;;2.83;2.63;;;12.60;99.90;;;12.71;nan;100199.56;4960851;28;20663;-64
2023/03/18 03:38:49;;;;;;;4.90;3.30;;;12.60;99.90;;;12.69;nan;100199.69;4952592;28;20636;-63
2023/03/18 03:41:16;;;;;;;3.40;3.03;;;12.50;99.90;;;12.71;nan;100199.56;4952367;29;20632;-64
2023/03/18 03:43:44;;;;;;;4.73;4.03;;;12.50;99.90;;;12.73;nan;100202.88;4951451;28;20633;-64
2023/03/18 03:46:11;;;;;;;4.40;3.30;;;12.50;99.90;;;12.73;nan;100193.25;4952183;28;21092;-64
2023/03/18 03:48:38;;;;;;;4.23;3.10;;;12.60;99.90;;;12.73;nan;100195.03;4950586;28;20636;-64
2023/03/18 03:51:06;;;;;;;4.50;3.60;;;12.60;99.90;;;12.68;nan;100191.97;4951852;28;20627;-63
2023/03/18 03:53:34;;;;;;;2.50;2.30;;;12.50;99.90;;;12.60;nan;100203.13;4950723;29;20694;-64
2023/03/18 03:56:03;;;;;;;2.93;2.77;;;12.50;99.90;;;12.57;nan;100195.53;4950669;28;20773;-64
2023/03/18 03:58:30;;;;;;;3.30;2.10;;;12.40;99.90;;;12.57;nan;100198.13;4952296;28;20635;-64
2023/03/18 04:00:58;;;;;;;5.37;3.33;;;12.40;99.90;;;12.53;nan;100201.16;4951703;28;20998;-64
2023/03/18 04:03:25;;;;;;;3.60;3.20;;;12.40;99.90;;;12.53;nan;100196.75;4966996;28;20640;-64
2023/03/18 04:05:53;;;;;;;5.50;3.33;;;12.40;99.90;;;12.52;nan;100207.34;4950336;28;20680;-64
2023/03/18 04:08:20;;;;;;;3.13;2.87;;;12.30;99.90;;;12.51;nan;100203.06;4951470;28;21085;-63
2023/03/18 04:10:47;;;;;;;7.10;3.10;;;12.30;99.90;;;12.52;nan;100209.97;4951521;28;20624;-64
2023/03/18 04:13:15;;;;;;;5.20;3.70;;;12.30;99.90;;;12.51;nan;100208.31;4952027;28;20644;-64
2023/03/18 04:15:42;;;;;;;2.87;2.67;;;12.30;99.90;;;12.50;nan;100212.69;4954531;28;21036;-64
2023/03/18 04:18:09;;;;;;;3.83;3.50;;;12.30;99.90;;;12.48;nan;100215.47;4955479;28;21015;-64
2023/03/18 04:20:37;;;;;;;6.03;3.40;;;12.30;99.90;;;12.41;nan;100211.72;4955189;28;21225;-64
2023/03/18 04:23:06;;;;;;;3.50;2.80;;;12.20;99.90;;;12.38;nan;100209.38;4967447;28;21044;-64
2023/03/18 04:25:34;;;;;;;2.73;2.63;;;12.20;99.90;;;12.39;nan;100223.28;4954809;28;20664;-64
2023/03/18 04:28:02;;;;;;;5.33;3.17;;;12.20;99.90;;;12.36;nan;100215.69;4954105;28;20624;-64
2023/03/18 04:30:29;;;;;;;2.83;2.47;;;12.20;99.90;;;12.34;nan;100221.06;4939318;28;21038;-64
2023/03/18 04:32:58;;;;;;;4.40;3.97;;;12.20;99.90;;;12.28;nan;100221.59;4955188;28;20695;-64
2023/03/18 04:35:27;;;;;;;6.20;3.57;;;12.10;99.90;;;12.29;nan;100220.63;4956094;28;20644;-63
2023/03/18 04:37:54;;;;;;;8.10;3.60;;;12.10;99.90;;;12.28;nan;100224.22;4952443;28;20699;-64
2023/03/18 04:40:21;;;;;;;4.80;2.80;;;12.10;99.90;;;12.25;nan;100228.84;4949281;29;21193;-64
2023/03/18 04:42:48;;;;;;;3.93;3.53;;;12.10;99.90;;;12.19;nan;100235.44;4954627;28;20636;-64
2023/03/18 04:45:16;;;;;;;4.27;3.33;;;12.00;99.90;;;12.19;nan;100232.81;4956145;28;20667;-64
2023/03/18 04:47:44;;;;;;;3.70;3.00;;;12.00;99.90;;;12.19;nan;100230.22;4954891;28;20690;-64
2023/03/18 04:50:13;;;;;;;3.00;2.70;;;12.00;99.90;;;12.15;nan;100231.44;4955891;28;20628;-64
2023/03/18 04:52:42;;;;;;;4.63;2.93;;;12.00;99.90;;;12.13;nan;100229.91;4952593;28;20647;-64
2023/03/18 04:55:11;;;;;;;4.43;3.37;;;12.00;99.90;;;12.09;nan;100225.88;4962842;28;20717;-64
2023/03/18 04:57:38;;;;;;;3.40;3.10;;;11.90;99.90;;;12.05;nan;100224.50;4953055;28;21021;-63
2023/03/18 05:00:10;;;;;;;4.40;3.20;;;11.90;99.90;;;12.05;nan;100227.13;4954032;28;20670;-64
2023/03/18 05:02:38;;;;;;;3.67;3.10;;;11.90;99.90;;;12.02;nan;100230.81;4953285;28;20644;-64
2023/03/18 05:05:07;;;;;;;3.70;3.40;;;11.90;99.90;;;12.03;nan;100229.03;4962057;28;20741;-64
2023/03/18 05:07:34;;;;;;;4.07;2.80;;;11.90;99.90;;;12.04;nan;100226.28;4948820;28;21194;-63
2023/03/18 05:10:03;;;;;;;3.30;2.87;;;11.90;99.90;;;12.08;nan;100225.06;4938915;29;20701;-64
2023/03/18 05:12:31;;;;;;;2.97;2.70;;;11.90;99.90;;;12.03;nan;100222.00;4954121;28;20644;-64
2023/03/18 05:14:58;;;;;;;4.80;3.37;;;11.90;99.90;;;12.02;nan;100230.81;4954455;28;20664;-64
2023/03/18 05:17:25;;;;;;;2.67;2.47;;;11.80;99.90;;;12.02;nan;100224.75;4954840;29;20643;-64
2023/03/18 05:19:52;;;;;;;5.10;2.97;;;11.80;99.90;;;12.03;nan;100234.25;4954455;28;20628;-63
2023/03/18 05:22:20;;;;;;;2.33;2.20;;;11.80;99.90;;;12.02;nan;100235.19;4953138;28;20640;-64
2023/03/18 05:24:50;;;;;;;2.50;2.40;;;11.80;99.90;;;12.00;nan;100235.34;4953976;28;20631;-64
2023/03/18 05:27:18;;;;;;;3.60;2.50;;;11.80;99.90;;;11.94;nan;100233.25;4953831;28;20686;-64
2023/03/18 05:29:45;;;;;;;2.23;2.10;;;11.80;99.90;;;11.89;nan;100230.16;4953923;28;20628;-64
2023/03/18 05:32:13;;;;;;;2.90;2.47;;;11.70;99.90;;;11.88;nan;100232.91;4952771;28;20640;-65
2023/03/18 05:34:41;;;;;;;4.60;2.17;;;11.70;99.90;;;11.84;nan;100234.94;4952382;28;20632;-64
2023/03/18 05:37:12;;;;;;;1.87;1.77;;;11.70;99.90;;;11.84;nan;100232.31;4950198;28;20640;-65
2023/03/18 05:39:39;;;;;;;3.40;2.43;;;11.70;99.90;;;11.84;nan;100232.31;4952054;28;20636;-65
2023/03/18 05:42:08;;;;;;;2.97;2.77;;;11.70;99.90;;;11.84;nan;100234.13;4938954;29;20628;-64
2023/03/18 05:44:35;;;;;;;2.33;2.13;;;11.70;99.90;;;11.87;nan;100234.69;4954143;28;20706;-64
2023/03/18 05:47:05;;;;;;;4.03;2.77;;;11.70;99.90;;;11.90;nan;100249.31;4953562;28;20667;-65
2023/03/18 05:49:32;;;;;;;5.50;2.20;;;11.70;99.90;;;11.91;nan;100241.31;4954760;28;21013;-65
2023/03/18 05:52:00;;;;;;;2.40;2.00;;;11.70;99.90;;;11.97;nan;100247.84;4953107;28;20632;-65
2023/03/18 05:54:27;;;;;;;2.60;2.43;;;11.80;99.90;;;11.98;nan;100247.72;4953598;29;20631;-64
2023/03/18 05:56:54;;;;;;;3.53;3.00;;;11.80;99.90;;;11.99;nan;100244.13;4951558;28;20632;-64
2023/03/18 05:59:22;;;;;;;2.43;2.33;;;11.80;99.90;;;12.00;nan;100251.03;4954835;28;20611;-63
2023/03/18 06:01:50;;;;;;;4.40;2.90;;;11.80;99.90;;;12.00;nan;100245.78;4952919;28;20691;-64
2023/03/18 06:04:18;;;;;;;4.50;2.80;;;11.80;99.90;;;12.00;nan;100258.88;4953055;28;21017;-64
2023/03/18 06:06:45;;;;;;;4.23;2.20;;;11.80;99.90;;;12.05;nan;100259.28;4956187;28;20680;-63
2023/03/18 06:09:13;;;;;;;3.40;3.07;;;11.90;99.90;;;12.09;nan;100265.94;4954301;28;20632;-64
2023/03/18 06:11:40;;;;;;;2.60;2.40;;;11.90;99.90;;;12.09;nan;100265.94;4952506;28;20694;-64
2023/03/18 06:14:08;;;;;;;2.53;2.30;;;11.90;99.90;;;12.11;nan;100264.03;4953270;29;20619;-63
2023/03/18 06:16:35;;;;;;;2.43;2.27;;;11.90;99.90;;;12.16;nan;100268.88;4952567;28;21635;-64
2023/03/18 06:19:03;;;;;;;3.60;2.00;;;12.00;99.90;;;12.19;nan;100273.84;4954379;28;20631;-64
2023/03/18 06:21:31;;;;;;;2.63;2.30;;;12.00;99.90;;;12.22;nan;100270.97;4952782;28;20624;-63
2023/03/18 06:24:00;;;;;;;2.67;2.47;;;12.00;99.90;;;12.23;nan;100272.63;4954316;28;20642;-64
2023/03/18 06:26:27;;;;;;;3.43;1.60;;;12.00;99.90;;;12.28;nan;100265.22;4951853;28;20679;-63
2023/03/18 06:28:55;;;;;;;2.90;2.70;;;12.10;99.90;;;12.36;nan;100266.22;4951701;28;21049;-64
2023/03/18 06:31:22;;;;;;;3.00;2.40;;;12.20;99.90;;;12.41;nan;100266.66;4953198;28;20627;-64
2023/03/18 06:33:49;;;;;;;3.63;2.13;;;12.20;99.90;;;12.48;nan;100270.41;4952574;28;20756;-63
2023/03/18 06:36:16;;;;;;;2.40;2.20;;;12.20;99.90;;;12.55;nan;100270.72;4952696;28;20667;-64
2023/03/18 06:38:44;;;;;;;2.00;1.87;;;12.40;99.90;;;12.57;nan;100267.97;4949760;28;21205;-64
2023/03/18 06:41:12;;;;;;;1.80;1.70;;;12.40;99.90;;;12.63;nan;100268.25;4951653;28;20632;-63
2023/03/18 06:43:39;;;;;;;2.23;2.07;;;12.40;99.90;;;12.65;nan;100270.78;4952466;28;21068;-64
2023/03/18 06:46:06;;;;;;;4.77;2.13;;;12.50;99.90;;;12.68;nan;100270.50;4951692;28;21272;-64
2023/03/18 06:48:34;;;;;;;2.07;1.90;;;12.50;99.90;;;12.77;nan;100267.91;4952469;28;20624;-65
2023/03/18 06:51:01;;;;;;;1.57;1.47;;;12.60;99.90;;;12.91;nan;100272.78;4951257;29;20637;-65
2023/03/18 06:53:28;;;;;;;2.03;1.90;;;12.70;99.90;;;13.18;nan;100270.38;4947037;29;20647;-65
2023/03/18 06:55:55;;;;;;;7.33;2.63;;;12.90;99.90;;;13.76;nan;100273.88;4952386;28;20656;-65
2023/03/18 06:58:23;;;;;;;3.10;1.83;;;13.50;99.90;;;14.19;nan;100290.91;4952059;29;20632;-64
2023/03/18 07:00:50;;;;;;;2.27;2.07;;;13.90;99.90;;;14.38;nan;100278.63;4951157;29;20636;-65
2023/03/18 07:03:20;;;;;;;4.53;1.80;;;14.20;99.90;;;14.31;nan;100276.72;4951277;28;20640;-65
2023/03/18 07:05:47;;;;;;;2.10;1.97;;;14.20;99.90;;;14.03;nan;100281.03;4967590;23;20696;-68
2023/03/18 07:08:15;;;;;;;3.50;2.20;;;13.90;99.90;;;14.16;nan;100276.28;4951242;28;20702;-68
2023/03/18 07:10:42;;;;;;;3.10;2.30;;;14.00;99.90;;;14.90;nan;100282.44;4952971;28;20659;-68
2023/03/18 07:13:12;;;;;;;3.03;2.10;;;14.60;99.90;;;15.80;nan;100295.53;4951861;28;21305;-66
2023/03/18 07:15:39;;;;;;;2.37;2.27;;;15.50;99.90;;;16.79;nan;100292.41;4947871;28;20675;-66
2023/03/18 07:18:06;;;;;;;2.13;1.87;;;16.40;98.80;;;17.65;nan;100294.66;4931094;29;20653;-68
2023/03/18 07:20:33;;;;;;;2.37;2.20;;;17.30;97.00;;;18.47;nan;100298.94;4932678;29;21220;-68
2023/03/18 07:23:00;;;;;;;2.90;2.70;;;18.10;94.50;;;19.24;nan;100306.06;4932581;29;20633;-68
2023/03/18 07:25:29;;;;;;;2.73;2.50;;;18.90;92.80;;;19.77;nan;100306.09;4926436;29;20669;-67
2023/03/18 07:27:59;;;;;;;3.30;2.77;;;19.50;90.00;;;20.30;nan;100304.31;4932774;29;20641;-68
2023/03/18 07:30:27;;;;;;;3.87;3.50;;;20.10;86.10;;;21.09;nan;100304.47;4933262;29;20633;-66
2023/03/18 07:32:54;;;;;;;3.20;2.90;;;20.80;83.00;;;21.81;nan;100301.75;4915996;29;20786;-68
2023/03/18 07:35:21;;;;;;;6.97;3.47;;;21.60;78.90;;;22.52;nan;100298.88;4930345;29;20640;-66
2023/03/18 07:37:48;;;;;;;3.60;3.30;;;22.30;75.30;;;23.18;nan;100302.69;4932247;29;20637;-67
2023/03/18 07:40:16;;;;;;;4.50;3.50;;;23.00;71.30;;;23.01;nan;100302.22;4932868;29;20640;-69
2023/03/18 07:42:43;;;;;;;4.87;3.63;;;23.10;67.90;;;22.07;nan;100307.31;4931879;29;20637;-65
2023/03/18 07:45:10;;;;;;;5.83;2.93;;;22.30;68.20;;;21.38;nan;100303.59;4932533;29;20629;-68
2023/03/18 07:47:37;;;;;;;3.67;2.83;;;21.50;69.30;;;20.77;nan;100308.31;4930951;29;20673;-68
2023/03/18 07:50:05;;;;;;;3.77;2.80;;;20.90;70.00;;;20.26;nan;100301.22;4932610;29;20613;-69
2023/03/18 07:52:32;;;;;;;3.80;2.57;;;20.30;71.20;;;19.81;nan;100304.72;4933044;29;20629;-67
2023/03/18 07:54:59;;;;;;;2.77;2.57;;;19.80;72.30;;;19.30;nan;100300.91;4933430;29;20625;-69
2023/03/18 07:57:26;;;;;;;4.10;3.00;;;19.40;73.90;;;19.41;nan;100302.38;4932436;29;20669;-68
2023/03/18 07:59:53;;;;;;;3.30;3.10;;;19.40;74.70;;;20.52;nan;100312.22;4932585;29;20621;-68
2023/03/18 08:02:21;;;;;;;4.20;3.00;;;20.50;73.20;;;22.11;nan;100317.38;4932322;29;20641;-66
2023/03/18 08:04:48;;;;;;;4.73;3.33;;;22.00;70.60;;;23.70;nan;100318.84;4933180;29;20672;-66
2023/03/18 08:07:16;;;;;;;2.67;2.47;;;23.80;66.80;;;25.14;nan;100321.41;4931396;29;21194;-67
2023/03/18 08:09:43;;;;;;;3.47;2.77;;;25.40;62.70;;;25.82;nan;100317.13;4932334;29;20620;-66
2023/03/18 08:12:09;;;;;;;2.83;2.57;;;26.40;62.10;;;26.21;nan;100317.91;4932097;29;20700;-67
2023/03/18 08:14:36;;;;;;;3.00;2.50;;;26.70;57.20;;;26.95;nan;100325.81;4932486;29;20633;-66
2023/03/18 08:17:03;;;;;;;4.37;2.67;;;27.40;55.90;;;27.34;nan;100322.66;4931964;29;20648;-67
2023/03/18 08:19:31;;;;;;;2.70;2.50;;;27.80;54.60;;;27.11;nan;100328.69;4931584;29;21195;-67
2023/03/18 08:21:58;;;;;;;3.50;2.70;;;27.80;53.00;;;27.31;nan;100321.22;4930382;29;20641;-66
2023/03/18 08:24:26;;;;;;;2.47;2.27;;;27.90;52.80;;;27.99;nan;100321.72;4931862;29;20722;-68
2023/03/18 08:26:53;;;;;;;5.23;2.33;;;28.40;51.70;;;28.68;nan;100333.56;4931321;29;20669;-66
2023/03/18 08:29:20;;;;;;;2.50;2.37;;;29.10;50.70;;;28.74;nan;100332.63;4932340;29;20691;-66
2023/03/18 08:31:46;;;;;;;2.90;2.40;;;29.40;49.50;;;29.08;nan;100332.56;4932517;29;20621;-66
2023/03/18 08:34:14;;;;;;;2.00;1.90;;;29.60;48.70;;;29.77;nan;100331.50;4931862;29;20637;-69
2023/03/18 08:36:41;;;;;;;3.27;2.30;;;30.20;48.10;;;30.27;nan;100330.72;4932269;29;21081;-65
2023/03/18 08:39:08;;;;;;;2.20;1.90;;;30.80;47.90;;;30.68;nan;100330.28;4931005;29;20637;-66
2023/03/18 08:41:36;;;;;;;1.80;1.70;;;31.10;46.60;;;31.08;nan;100330.84;4932392;29;20695;-67
2023/03/18 08:44:06;;;;;;;2.23;1.90;;;31.60;45.60;;;31.06;nan;100332.13;4931203;29;20641;-66
2023/03/18 08:46:33;;;;;;;2.00;1.90;;;31.60;44.60;;;31.65;nan;100331.19;4932314;29;21242;-66
2023/03/18 08:49:00;;;;;;;2.07;1.97;;;32.10;44.40;;;32.28;nan;100332.31;4932214;29;20641;-66
2023/03/18 08:51:28;;;;;;;2.00;1.83;;;32.70;43.70;;;32.14;nan;100332.75;4932500;29;20688;-67
2023/03/18 08:53:55;;;;;;;1.53;1.53;;;32.70;43.50;;;32.81;nan;100334.81;4931478;29;20636;-67
2023/03/18 08:56:22;;;;;;;2.03;1.57;;;33.30;42.80;;;33.23;nan;100330.16;4914585;29;21100;-68
2023/03/18 08:58:50;;;;;;;2.07;1.93;;;33.60;42.20;;;33.26;nan;100326.94;4931106;29;21213;-67
2023/03/18 09:01:20;;;;;;;1.60;1.50;;;33.70;41.60;;;32.89;nan;100331.63;4935436;29;20624;-68
2023/03/18 09:03:49;;;;;;;1.50;1.50;;;33.40;41.10;;;33.19;nan;100331.75;4948155;29;20637;-67
2023/03/18 09:06:16;;;;;;;1.63;1.50;;;33.50;41.20;;;33.49;nan;100336.44;4933469;29;21265;-68
2023/03/18 09:08:43;;;;;;;2.00;1.50;;;34.10;40.70;;;34.36;nan;100331.66;4933905;29;20625;-67
2023/03/18 09:11:12;;;;;;;1.80;1.57;;;34.70;40.50;;;34.71;nan;100329.97;4936628;29;21017;-68
2023/03/18 09:13:39;;;;;;;1.80;1.70;;;35.30;39.60;;;35.20;nan;100330.06;4934729;29;20632;-67
2023/03/18 09:16:07;;;;;;;1.63;1.53;;;35.70;39.20;;;35.64;nan;100329.00;4924694;29;20753;-68
2023/03/18 09:18:34;;;;;;;1.43;1.40;;;35.90;38.70;;;34.80;nan;100323.69;4916010;29;20633;-68
2023/03/18 09:21:03;;;;;;;1.57;1.40;;;35.40;38.40;;;34.07;nan;100321.66;4935148;29;20649;-67
2023/03/18 09:23:31;;;;;;;1.53;1.43;;;34.60;38.70;;;33.53;nan;100322.16;4935260;29;20625;-67
2023/03/18 09:25:59;;;;;;;2.20;1.60;;;34.00;39.00;;;33.40;nan;100311.81;4935388;29;20673;-67
2023/03/18 09:28:26;;;;;;;4.43;1.70;;;33.70;38.90;;;33.69;nan;100301.34;4934803;29;20641;-67
2023/03/18 09:30:54;;;;;;;1.30;1.30;;;33.90;39.10;;;33.88;nan;100307.03;4933271;29;20637;-67
2023/03/18 09:33:21;;;;;;;1.77;1.67;;;34.20;39.00;;;34.03;nan;100304.34;4934393;29;20640;-68
2023/03/18 09:35:49;;;;;;;1.90;1.80;;;34.20;38.70;;;34.20;nan;100302.94;4932835;29;20665;-68
2023/03/18 09:38:19;;;;;;;1.90;1.50;;;34.40;38.50;;;34.38;nan;100301.56;4934433;29;20623;-68
2023/03/18 09:41:03;;;;;;;4.03;1.53;;;35.00;38.30;;;33.56;nan;100304.56;4935049;29;20632;-68
2023/03/18 09:44:08;;;;;;;1.80;1.70;;;34.20;38.30;;;33.92;nan;100303.50;4934391;29;21503;-68
2023/03/18 09:47:05;;;;;;;1.47;1.37;;;34.30;38.30;;;32.31;nan;100296.69;4933180;29;20668;-68
2023/03/18 09:50:09;;;;;;;1.30;1.30;;;33.40;38.50;;;31.23;nan;100293.28;4935414;29;20632;-69
2023/03/18 09:52:47;;;;;;;2.53;1.97;;;31.90;39.50;;;30.53;nan;100279.72;4934110;29;20695;-69
2023/03/18 09:55:26;;;;;;;1.40;1.40;;;30.90;40.30;;;30.88;nan;100283.97;4932478;29;20663;-67
2023/03/18 09:57:58;;;;;;;2.93;1.90;;;31.00;40.50;;;30.74;nan;100275.41;4931691;29;20687;-67
2023/03/18 10:00:36;;;;;;;1.57;1.47;;;30.90;40.30;;;30.50;nan;100280.22;4932818;29;20640;-68
2023/03/18 10:03:22;;;;;;;2.07;1.40;;;30.80;40.70;;;30.56;nan;100284.59;4931830;29;21206;-69
2023/03/18 10:05:55;;;;;;;1.63;1.23;;;30.80;40.60;;;30.70;nan;100276.97;4931426;29;20685;-69
2023/03/18 10:09:13;;;;;;;1.30;1.20;;;30.90;40.50;;;30.63;nan;100279.84;4931252;29;21021;-68
2023/03/18 10:11:50;;;;;;;1.10;1.00;;;30.80;40.30;;;30.81;nan;100278.75;4904279;29;20704;-69
2023/03/18 10:14:25;;;;;;;1.53;1.43;;;30.80;40.40;;;30.88;nan;100281.28;4918411;29;20635;-69
2023/03/18 10:17:18;;;;;;;13.03;1.40;;;30.80;40.40;;;30.26;nan;100278.75;4933107;29;21125;-68
2023/03/18 10:19:56;;;;;;;1.40;1.07;;;30.60;40.60;;;29.46;nan;100275.53;4933875;29;20633;-68
2023/03/18 10:22:50;;;;;;;1.83;1.60;;;29.70;40.80;;;29.69;nan;100282.66;4933462;29;20641;-68
2023/03/18 10:25:48;;;;;;;1.80;1.60;;;29.80;41.40;;;29.43;nan;100278.69;4933469;29;20637;-68
2023/03/18 10:28:37;;;;;;;1.50;1.40;;;29.60;41.40;;;29.89;nan;100274.97;4927755;29;20749;-69
2023/03/18 10:31:22;;;;;;;1.60;1.00;;;29.80;41.40;;;30.83;nan;100275.78;4927979;29;20708;-68
2023/03/18 10:34:05;;;;;;;4.43;1.20;;;30.50;40.90;;;31.47;nan;100283.03;4948023;29;20628;-69
2023/03/18 10:37:38;;;;;;;1.23;1.23;;;31.30;40.50;;;31.83;nan;100278.78;4946920;28;21043;-68